Time;durP1;ratioP1;P1;durP2;ratioP2;P2;SDS_P1;SDS_P2;PMS_P1;PMS_P2;Temp;Humidity;BMP_temperature;BMP_pressure;BME280_temperature;BME280_humidity;BME280_pressure;Samples;Min_cycle;Max_cycle;Signal;HPM_P1;HPM_P2
2022/04/09 00:02:21;;;;;;;2.78;0.82;;;5.20;99.90;;;;;;5000424;28;20441;-70
2022/04/09 00:04:47;;;;;;;4.80;0.70;;;5.20;99.90;;;;;;5024823;28;20037;-70
2022/04/09 00:07:14;;;;;;;5.10;0.80;;;5.20;99.90;;;;;;5004760;28;20029;-70
2022/04/09 00:09:42;;;;;;;3.50;0.75;;;5.10;99.90;;;;;;5003526;28;20037;-70
2022/04/09 00:12:08;;;;;;;1.77;0.85;;;5.00;99.90;;;;;;5020112;28;21329;-70
2022/04/09 00:14:34;;;;;;;4.53;0.90;;;4.90;99.90;;;;;;5005256;28;20068;-70
2022/04/09 00:17:00;;;;;;;7.65;0.85;;;4.90;99.90;;;;;;5003281;28;20037;-70
2022/04/09 00:19:26;;;;;;;7.32;0.93;;;4.90;99.90;;;;;;5023690;28;20418;-70
2022/04/09 00:21:52;;;;;;;7.78;1.30;;;4.90;99.90;;;;;;5010527;28;20196;-70
2022/04/09 00:24:18;;;;;;;2.47;0.82;;;4.90;99.90;;;;;;5021213;28;20042;-70
2022/04/09 00:26:44;;;;;;;2.90;1.30;;;4.80;99.90;;;;;;5005258;28;20038;-70
2022/04/09 00:29:09;;;;;;;9.63;1.50;;;4.80;99.90;;;;;;5009985;28;20076;-70
2022/04/09 00:31:35;;;;;;;11.17;1.97;;;4.80;99.90;;;;;;5003458;28;20044;-70
2022/04/09 00:34:01;;;;;;;11.38;1.60;;;4.80;99.90;;;;;;5023898;28;20034;-70
2022/04/09 00:36:29;;;;;;;9.60;1.10;;;4.80;99.90;;;;;;5013767;28;20401;-70
2022/04/09 00:38:59;;;;;;;11.68;1.17;;;4.80;99.90;;;;;;4935786;28;20054;-70
2022/04/09 00:41:29;;;;;;;9.93;1.38;;;4.90;99.90;;;;;;4900887;28;20893;-70
2022/04/09 00:43:56;;;;;;;14.05;1.67;;;4.90;99.90;;;;;;4998798;28;20175;-70
2022/04/09 00:46:22;;;;;;;15.38;3.17;;;5.00;99.90;;;;;;5018056;28;20084;-70
2022/04/09 00:48:48;;;;;;;19.05;2.38;;;5.00;99.90;;;;;;5033103;28;20576;-70
2022/04/09 00:51:13;;;;;;;11.63;1.80;;;5.00;99.90;;;;;;5005889;28;20072;-70
2022/04/09 00:53:41;;;;;;;3.73;1.30;;;5.00;99.90;;;;;;4993404;28;20184;-77
2022/04/09 00:56:16;;;;;;;12.20;2.15;;;5.10;99.90;;;;;;5006758;28;20450;-70
2022/04/09 00:58:55;;;;;;;6.75;1.30;;;5.10;99.90;;;;;;5023951;28;20091;-70
2022/04/09 01:01:23;;;;;;;6.43;1.60;;;5.10;99.90;;;;;;5008011;28;20052;-70
2022/04/09 01:03:52;;;;;;;11.23;1.17;;;5.10;99.90;;;;;;5027914;28;20041;-71
2022/04/09 01:06:18;;;;;;;10.43;1.60;;;5.10;99.90;;;;;;5000360;28;20514;-70
2022/04/09 01:08:43;;;;;;;4.03;0.87;;;5.10;99.90;;;;;;5008517;28;20041;-70
2022/04/09 01:11:12;;;;;;;3.87;0.60;;;5.10;99.90;;;;;;5021273;28;20044;-71
2022/04/09 01:13:37;;;;;;;2.30;0.60;;;5.00;99.90;;;;;;5020533;28;20331;-70
2022/04/09 01:16:03;;;;;;;4.10;0.80;;;5.00;99.90;;;;;;5006518;28;20044;-70
2022/04/09 01:18:31;;;;;;;4.95;0.50;;;5.00;99.90;;;;;;5024009;28;20103;-71
2022/04/09 01:20:58;;;;;;;4.03;0.98;;;5.00;99.90;;;;;;5004631;28;20121;-70
2022/04/09 01:23:25;;;;;;;3.83;0.50;;;4.90;99.90;;;;;;5024432;28;20041;-70
2022/04/09 01:25:50;;;;;;;3.58;0.60;;;4.80;99.90;;;;;;5009801;28;20045;-70
2022/04/09 01:28:16;;;;;;;4.93;0.70;;;4.80;99.90;;;;;;5023725;28;20059;-70
2022/04/09 01:30:42;;;;;;;3.30;0.40;;;4.80;99.90;;;;;;5003319;28;20040;-70
2022/04/09 01:33:15;;;;;;;4.10;0.70;;;4.80;99.90;;;;;;5046116;22;20244;-86
2022/04/09 01:35:40;;;;;;;3.10;1.10;;;4.80;99.90;;;;;;4991078;28;20046;-85
2022/04/09 01:38:06;;;;;;;9.67;1.00;;;4.70;99.90;;;;;;4960849;28;20516;-86
2022/04/09 01:40:31;;;;;;;5.30;0.70;;;4.70;99.90;;;;;;4962551;28;20034;-86
2022/04/09 01:42:57;;;;;;;3.30;0.70;;;4.70;99.90;;;;;;4955907;28;20461;-85
2022/04/09 01:45:23;;;;;;;6.93;1.13;;;4.60;99.90;;;;;;4956253;28;20156;-86
2022/04/09 01:47:48;;;;;;;6.90;1.00;;;4.60;99.90;;;;;;4943216;28;20038;-85
2022/04/09 01:50:14;;;;;;;9.97;1.70;;;4.60;99.90;;;;;;4953771;28;20723;-86
2022/04/09 01:52:40;;;;;;;4.97;0.88;;;4.60;99.90;;;;;;4950019;28;20050;-85
2022/04/09 01:55:07;;;;;;;9.70;0.90;;;4.60;99.90;;;;;;4945356;28;20497;-86
2022/04/09 01:57:34;;;;;;;5.22;1.00;;;4.60;99.90;;;;;;4941364;28;20046;-85
2022/04/09 01:59:59;;;;;;;4.35;0.85;;;4.60;99.90;;;;;;4955834;28;20074;-86
2022/04/09 02:02:25;;;;;;;3.20;1.03;;;4.60;99.90;;;;;;4941804;28;20150;-84
2022/04/09 02:04:51;;;;;;;6.67;1.47;;;4.60;99.90;;;;;;4943953;28;20129;-85
2022/04/09 02:07:17;;;;;;;8.37;0.90;;;4.60;99.90;;;;;;4954988;28;20560;-85
2022/04/09 02:09:42;;;;;;;5.22;1.25;;;4.60;99.90;;;;;;4939537;28;20042;-85
2022/04/09 02:12:08;;;;;;;6.70;1.60;;;4.50;99.90;;;;;;4941247;28;20034;-84
2022/04/09 02:14:34;;;;;;;8.17;1.23;;;4.50;99.90;;;;;;4958724;28;20551;-86
2022/04/09 02:16:59;;;;;;;4.80;1.17;;;4.50;99.90;;;;;;4957775;28;20121;-85
2022/04/09 02:19:25;;;;;;;8.13;1.17;;;4.60;99.90;;;;;;4960033;28;20089;-82
2022/04/09 02:21:53;;;;;;;8.77;1.10;;;4.50;99.90;;;;;;4957295;28;20050;-85
2022/04/09 02:24:19;;;;;;;7.03;0.88;;;4.50;99.90;;;;;;4940248;28;20050;-86
2022/04/09 02:26:44;;;;;;;10.57;1.30;;;4.50;99.90;;;;;;4954733;28;20070;-86
2022/04/09 02:29:10;;;;;;;11.30;1.50;;;4.60;99.90;;;;;;4943382;28;20097;-85
2022/04/09 02:31:37;;;;;;;6.87;1.40;;;4.50;99.90;;;;;;4958606;28;20041;-86
2022/04/09 02:34:04;;;;;;;2.83;0.75;;;4.50;99.90;;;;;;4942476;28;20039;-85
2022/04/09 02:36:31;;;;;;;7.03;1.42;;;4.60;99.90;;;;;;4939436;28;20038;-86
2022/04/09 02:38:57;;;;;;;3.45;1.20;;;4.60;99.90;;;;;;4942290;28;20457;-86
2022/04/09 02:41:23;;;;;;;3.83;1.03;;;4.60;99.90;;;;;;4941810;28;20082;-85
2022/04/09 02:43:49;;;;;;;3.80;0.90;;;4.50;99.90;;;;;;4939369;28;20453;-86
2022/04/09 02:46:16;;;;;;;9.03;1.03;;;4.60;99.90;;;;;;4940305;28;20066;-87
2022/04/09 02:48:41;;;;;;;3.83;0.73;;;4.60;99.90;;;;;;4942208;28;20101;-86
2022/04/09 02:51:07;;;;;;;6.23;1.10;;;4.60;99.90;;;;;;4928814;28;20538;-86
2022/04/09 02:53:33;;;;;;;14.20;1.00;;;4.50;99.90;;;;;;4934923;28;20042;-86
2022/04/09 02:55:58;;;;;;;2.83;0.73;;;4.50;99.90;;;;;;4945646;28;20090;-86
2022/04/09 02:58:24;;;;;;;7.13;0.60;;;4.60;99.90;;;;;;4956918;28;20398;-87
2022/04/09 03:00:49;;;;;;;3.70;0.50;;;4.50;99.90;;;;;;4941579;28;20054;-85
2022/04/09 03:03:15;;;;;;;7.40;1.00;;;4.50;99.90;;;;;;4936181;28;20448;-86
2022/04/09 03:05:41;;;;;;;7.20;1.47;;;4.50;99.90;;;;;;4950956;28;20046;-83
2022/04/09 03:08:07;;;;;;;7.50;0.70;;;4.50;99.90;;;;;;4954283;28;20046;-83
2022/04/09 03:10:32;;;;;;;7.88;1.30;;;4.50;99.90;;;;;;4937274;28;20095;-85
2022/04/09 03:12:58;;;;;;;6.60;1.10;;;4.60;99.90;;;;;;4955974;28;20468;-86
2022/04/09 03:15:24;;;;;;;5.47;0.77;;;4.60;99.90;;;;;;4951750;28;20465;-85
2022/04/09 03:17:49;;;;;;;3.63;0.60;;;4.70;99.90;;;;;;4939603;28;20074;-85
2022/04/09 03:20:15;;;;;;;4.77;1.03;;;4.70;99.90;;;;;;4952387;28;20661;-86
2022/04/09 03:22:45;;;;;;;6.10;0.80;;;4.70;99.90;;;;;;4934593;28;20445;-84
2022/04/09 03:25:11;;;;;;;3.05;0.60;;;4.70;99.90;;;;;;4954359;28;20094;-85
2022/04/09 03:27:37;;;;;;;4.45;0.55;;;4.60;99.90;;;;;;4938854;28;20042;-85
2022/04/09 03:30:04;;;;;;;4.43;0.90;;;4.50;99.90;;;;;;4956417;28;20072;-82
2022/04/09 03:32:29;;;;;;;4.03;0.73;;;4.50;99.90;;;;;;4940669;28;20043;-86
2022/04/09 03:34:57;;;;;;;4.13;0.77;;;4.40;99.90;;;;;;4942050;28;20066;-86
2022/04/09 03:37:22;;;;;;;5.35;0.85;;;4.40;99.90;;;;;;4939394;28;20047;-85
2022/04/09 03:39:49;;;;;;;2.77;0.63;;;4.40;99.90;;;;;;4956667;28;20050;-86
2022/04/09 03:42:15;;;;;;;5.10;1.85;;;4.30;99.90;;;;;;4954281;28;20046;-85
2022/04/09 03:44:41;;;;;;;10.15;1.40;;;4.30;99.90;;;;;;4954672;28;20058;-86
2022/04/09 03:47:09;;;;;;;6.10;0.90;;;4.30;99.90;;;;;;4945621;28;20726;-86
2022/04/09 03:49:35;;;;;;;4.13;0.90;;;4.20;99.90;;;;;;4954580;28;20046;-85
2022/04/09 03:52:01;;;;;;;6.70;1.57;;;4.20;99.90;;;;;;4930499;28;20650;-82
2022/04/09 03:54:27;;;;;;;6.95;1.70;;;4.20;99.90;;;;;;4937562;28;20396;-85
2022/04/09 03:56:56;;;;;;;8.30;1.60;;;4.30;99.90;;;;;;4957597;28;20046;-87
2022/04/09 03:59:22;;;;;;;4.70;1.77;;;4.20;99.90;;;;;;4940270;28;20137;-86
2022/04/09 04:01:47;;;;;;;11.25;1.20;;;4.30;99.90;;;;;;4943716;28;20396;-86
2022/04/09 04:04:13;;;;;;;8.07;1.23;;;4.30;99.90;;;;;;4941451;28;20109;-85
2022/04/09 04:06:42;;;;;;;10.23;1.30;;;4.30;99.90;;;;;;4942989;28;20053;-85
2022/04/09 04:09:07;;;;;;;4.40;1.27;;;4.30;99.90;;;;;;4938707;28;20448;-86
2022/04/09 04:11:34;;;;;;;5.80;1.37;;;4.40;99.90;;;;;;4943489;28;20034;-84
2022/04/09 04:13:59;;;;;;;6.05;1.17;;;4.40;99.90;;;;;;4957324;28;20479;-86
2022/04/09 04:16:25;;;;;;;4.20;1.20;;;4.40;99.90;;;;;;4943603;28;20511;-84
2022/04/09 04:18:51;;;;;;;4.37;0.87;;;4.40;99.90;;;;;;4937624;28;20493;-85
2022/04/09 04:21:16;;;;;;;7.70;1.13;;;4.40;99.90;;;;;;4933803;28;20047;-84
2022/04/09 04:23:42;;;;;;;11.87;0.80;;;4.40;99.90;;;;;;4972726;28;20343;-85
2022/04/09 04:26:08;;;;;;;4.60;0.70;;;4.40;99.90;;;;;;4943710;28;20038;-84
2022/04/09 04:28:33;;;;;;;7.03;0.80;;;4.30;99.90;;;;;;4957741;28;20038;-86
2022/04/09 04:30:59;;;;;;;5.97;0.83;;;4.40;99.90;;;;;;4958980;28;20046;-85
2022/04/09 04:33:25;;;;;;;4.57;1.07;;;4.40;99.90;;;;;;4939200;28;20065;-83
2022/04/09 04:35:51;;;;;;;7.22;1.20;;;4.40;99.90;;;;;;4943029;28;20489;-86
2022/04/09 04:38:16;;;;;;;7.53;1.27;;;4.40;99.90;;;;;;4939832;28;20035;-85
2022/04/09 04:40:42;;;;;;;10.00;1.50;;;4.50;99.90;;;;;;4943109;28;20673;-86
2022/04/09 04:43:08;;;;;;;7.53;1.40;;;4.50;99.90;;;;;;4956352;28;20317;-85
2022/04/09 04:45:34;;;;;;;13.70;1.60;;;4.50;99.90;;;;;;4942787;28;20841;-86
2022/04/09 04:47:59;;;;;;;9.63;1.30;;;4.60;99.90;;;;;;4942506;28;20229;-86
2022/04/09 04:50:25;;;;;;;10.57;2.23;;;4.60;99.90;;;;;;4939909;28;20105;-84
2022/04/09 04:52:52;;;;;;;6.97;1.05;;;4.60;99.90;;;;;;4949086;28;20035;-86
2022/04/09 04:55:18;;;;;;;15.10;1.65;;;4.60;99.90;;;;;;4943473;28;20039;-85
2022/04/09 04:57:51;;;;;;;14.77;1.33;;;4.60;99.90;;;;;;4956319;28;20061;-85
2022/04/09 05:00:22;;;;;;;8.27;0.95;;;4.60;99.90;;;;;;4957396;28;20050;-86
2022/04/09 05:02:49;;;;;;;10.75;1.00;;;4.60;99.90;;;;;;4955867;28;20042;-85
2022/04/09 05:05:15;;;;;;;7.78;1.92;;;4.60;99.90;;;;;;4941030;28;20098;-85
2022/04/09 05:07:51;;;;;;;8.57;1.37;;;4.60;99.90;;;;;;4958358;28;20367;-85
2022/04/09 05:10:25;;;;;;;4.07;1.00;;;4.60;99.90;;;;;;4941123;28;20456;-86
2022/04/09 05:12:52;;;;;;;5.63;1.05;;;4.70;99.90;;;;;;4950160;28;20043;-85
2022/04/09 05:15:18;;;;;;;8.07;1.25;;;4.80;99.90;;;;;;4960713;28;20074;-86
2022/04/09 05:17:46;;;;;;;6.40;0.90;;;4.90;99.90;;;;;;4956326;28;20364;-86
2022/04/09 05:20:14;;;;;;;4.97;1.20;;;4.90;99.90;;;;;;4940292;28;20105;-86
2022/04/09 05:22:43;;;;;;;3.58;0.47;;;5.00;99.90;;;;;;4957478;28;20412;-86
2022/04/09 05:25:10;;;;;;;2.97;0.68;;;5.00;99.90;;;;;;4940619;28;20515;-85
2022/04/09 05:27:37;;;;;;;10.77;1.10;;;5.00;99.90;;;;;;4943369;28;20422;-86
2022/04/09 05:30:04;;;;;;;3.03;0.52;;;5.00;99.90;;;;;;4952856;28;20596;-84
2022/04/09 05:32:29;;;;;;;3.42;0.85;;;5.00;99.90;;;;;;4954387;28;20152;-85
2022/04/09 05:34:56;;;;;;;4.93;1.10;;;5.00;99.90;;;;;;4939444;28;20464;-86
2022/04/09 05:37:21;;;;;;;2.20;0.70;;;5.00;99.90;;;;;;4947987;28;20039;-86
2022/04/09 05:39:47;;;;;;;4.27;1.07;;;4.90;99.90;;;;;;4955904;28;20070;-86
2022/04/09 05:42:13;;;;;;;11.33;1.90;;;4.80;99.90;;;;;;4950444;28;20055;-83
2022/04/09 05:44:39;;;;;;;7.88;1.38;;;4.90;99.90;;;;;;4940263;28;20054;-86
2022/04/09 05:47:05;;;;;;;5.73;1.30;;;4.80;99.90;;;;;;4947775;28;20047;-86
2022/04/09 05:49:31;;;;;;;7.95;1.13;;;4.80;99.90;;;;;;4942891;28;20069;-86
2022/04/09 05:51:57;;;;;;;6.10;1.43;;;4.80;99.90;;;;;;4940903;28;20043;-86
2022/04/09 05:54:24;;;;;;;6.68;1.35;;;4.90;99.90;;;;;;4958553;28;20313;-86
2022/04/09 05:56:50;;;;;;;;;;;4.90;99.90;;;;;;4956976;28;20453;-84
2022/04/09 05:59:16;;;;;;;8.45;1.30;;;5.00;99.90;;;;;;4957799;28;19929;-86
2022/04/09 06:01:42;;;;;;;11.55;1.80;;;5.00;99.90;;;;;;4954776;28;20485;-84
2022/04/09 06:04:08;;;;;;;8.80;1.17;;;5.10;99.90;;;;;;4958629;28;20043;-84
2022/04/09 06:06:34;;;;;;;10.02;1.50;;;5.10;99.90;;;;;;4941912;28;20113;-86
2022/04/09 06:09:02;;;;;;;10.03;1.97;;;5.10;99.90;;;;;;4941061;28;20074;-86
2022/04/09 06:11:29;;;;;;;6.55;1.17;;;5.30;99.90;;;;;;4939416;28;20042;-86
2022/04/09 06:13:55;;;;;;;9.07;1.45;;;5.40;99.90;;;;;;4930383;28;20047;-86
2022/04/09 06:16:22;;;;;;;6.70;2.47;;;5.50;99.90;;;;;;4937608;28;20041;-86
2022/04/09 06:18:48;;;;;;;9.98;1.23;;;5.60;99.90;;;;;;4942490;28;20073;-86
2022/04/09 06:21:13;;;;;;;12.40;1.27;;;5.70;99.90;;;;;;4950302;28;20619;-85
2022/04/09 06:23:39;;;;;;;10.13;1.40;;;5.70;99.90;;;;;;4950576;28;20085;-85
2022/04/09 06:26:05;;;;;;;8.00;1.20;;;5.70;99.90;;;;;;4940272;28;20042;-85
2022/04/09 06:28:45;;;;;;;11.17;2.07;;;5.70;99.90;;;;;;4961478;28;20047;-85
2022/04/09 06:31:10;;;;;;;6.97;1.42;;;5.60;99.90;;;;;;4959295;28;20038;-85
2022/04/09 06:33:36;;;;;;;10.47;1.20;;;5.60;99.90;;;;;;4956459;28;20090;-85
2022/04/09 06:36:05;;;;;;;5.33;1.30;;;5.50;99.90;;;;;;4942658;28;20038;-86
2022/04/09 06:38:33;;;;;;;8.40;1.35;;;5.50;99.90;;;;;;4940863;28;20494;-85
2022/04/09 06:40:59;;;;;;;11.25;1.30;;;5.50;99.90;;;;;;4957017;28;20061;-85
2022/04/09 06:43:26;;;;;;;9.00;1.50;;;5.40;99.90;;;;;;4956494;28;20039;-83
2022/04/09 06:45:52;;;;;;;10.15;1.38;;;5.50;99.90;;;;;;4939641;28;20448;-85
2022/04/09 06:48:18;;;;;;;11.95;1.98;;;5.60;99.90;;;;;;4962792;28;20043;-86
2022/04/09 06:50:43;;;;;;;5.33;1.07;;;5.60;99.90;;;;;;4940148;28;20085;-86
2022/04/09 06:53:09;;;;;;;10.53;1.93;;;5.70;99.90;;;;;;4938539;28;20093;-86
2022/04/09 06:55:35;;;;;;;6.40;1.40;;;5.90;99.90;;;;;;4956557;28;20471;-85
2022/04/09 06:58:02;;;;;;;9.75;1.17;;;6.00;99.90;;;;;;4942370;28;20092;-86
2022/04/09 07:00:28;;;;;;;5.10;0.90;;;6.10;99.90;;;;;;4954065;28;20365;-85
2022/04/09 07:02:53;;;;;;;5.85;1.35;;;6.20;99.90;;;;;;4955663;28;20081;-86
2022/04/09 07:05:21;;;;;;;4.80;1.43;;;6.30;99.90;;;;;;4942386;28;20409;-86
2022/04/09 07:07:50;;;;;;;6.90;0.77;;;6.30;99.90;;;;;;4938277;28;20050;-87
2022/04/09 07:10:16;;;;;;;5.88;0.63;;;6.30;99.90;;;;;;4946726;28;20504;-86
2022/04/09 07:12:42;;;;;;;3.60;0.67;;;6.30;99.90;;;;;;4938891;28;20039;-85
2022/04/09 07:15:09;;;;;;;6.88;2.00;;;6.20;99.90;;;;;;4937569;28;20038;-86
2022/04/09 07:17:34;;;;;;;2.65;0.98;;;6.20;99.90;;;;;;4959604;28;20508;-86
2022/04/09 07:20:02;;;;;;;7.37;1.73;;;6.20;99.90;;;;;;4954892;28;20460;-86
2022/04/09 07:22:28;;;;;;;6.78;1.38;;;6.10;99.90;;;;;;4943849;28;20046;-86
2022/04/09 07:24:55;;;;;;;4.57;0.70;;;6.10;99.90;;;;;;4940971;28;20105;-84
2022/04/09 07:27:21;;;;;;;6.65;1.25;;;6.10;99.90;;;;;;4956630;28;20421;-86
2022/04/09 07:29:48;;;;;;;9.20;1.60;;;6.20;99.90;;;;;;4958381;28;20157;-85
2022/04/09 07:32:13;;;;;;;8.27;0.88;;;6.20;99.90;;;;;;4941024;28;20046;-86
2022/04/09 07:34:39;;;;;;;12.30;2.43;;;6.30;99.90;;;;;;4961335;28;20038;-84
2022/04/09 07:37:08;;;;;;;6.13;1.67;;;6.40;99.90;;;;;;4952734;28;20089;-86
2022/04/09 07:39:37;;;;;;;7.55;1.52;;;6.50;99.90;;;;;;4947797;28;20046;-86
2022/04/09 07:42:03;;;;;;;7.32;1.67;;;6.60;99.90;;;;;;4953672;28;20045;-87
2022/04/09 07:44:32;;;;;;;6.75;1.38;;;6.70;99.90;;;;;;4950692;28;20145;-86
2022/04/09 07:46:57;;;;;;;10.97;1.60;;;6.80;99.90;;;;;;4960107;28;20581;-85
2022/04/09 07:49:23;;;;;;;6.97;1.00;;;6.90;99.90;;;;;;4937030;28;20852;-88
2022/04/09 07:51:48;;;;;;;6.37;1.33;;;7.10;99.90;;;;;;4960158;28;20043;-86
2022/04/09 07:54:15;;;;;;;7.50;1.00;;;7.10;99.90;;;;;;4964686;28;20035;-87
2022/04/09 07:56:41;;;;;;;5.70;1.30;;;7.20;99.90;;;;;;4963862;28;20041;-88
2022/04/09 07:59:07;;;;;;;10.30;1.15;;;7.30;99.90;;;;;;4949304;28;20085;-87
2022/04/09 08:01:32;;;;;;;9.97;1.40;;;7.20;99.90;;;;;;4968006;28;20074;-89
2022/04/09 08:03:58;;;;;;;8.67;1.70;;;7.20;99.90;;;;;;4961968;28;20350;-85
2022/04/09 08:06:24;;;;;;;8.90;1.20;;;7.20;99.90;;;;;;4946002;28;20035;-86
2022/04/09 08:08:52;;;;;;;6.50;0.77;;;7.30;99.90;;;;;;4964351;28;20453;-85
2022/04/09 08:11:19;;;;;;;8.68;1.25;;;7.30;99.90;;;;;;4952237;28;20317;-86
2022/04/09 08:13:44;;;;;;;7.43;1.55;;;7.30;99.90;;;;;;4950455;28;20038;-86
2022/04/09 08:16:10;;;;;;;9.53;1.67;;;7.40;99.90;;;;;;4976997;28;20045;-86
2022/04/09 08:18:38;;;;;;;8.50;0.95;;;7.50;99.90;;;;;;4955770;28;20410;-86
2022/04/09 08:21:04;;;;;;;10.40;1.92;;;7.50;99.90;;;;;;4952432;28;20130;-87
2022/04/09 08:23:30;;;;;;;6.20;1.55;;;7.60;99.90;;;;;;4955106;28;20074;-87
2022/04/09 08:25:56;;;;;;;3.67;1.08;;;7.60;99.90;;;;;;4955935;28;20097;-88
2022/04/09 08:28:22;;;;;;;7.23;1.47;;;7.70;99.90;;;;;;4971089;28;20046;-87
2022/04/09 08:30:47;;;;;;;7.50;1.23;;;7.70;99.90;;;;;;4949627;28;20122;-86
2022/04/09 08:33:16;;;;;;;7.00;1.50;;;7.80;99.90;;;;;;4952538;28;20039;-87
2022/04/09 08:35:43;;;;;;;6.95;1.35;;;7.90;99.90;;;;;;4955587;28;20078;-87
2022/04/09 08:38:09;;;;;;;6.43;1.40;;;8.00;99.90;;;;;;4971503;28;20051;-87
2022/04/09 08:40:36;;;;;;;9.50;2.10;;;8.10;99.90;;;;;;4948407;28;20109;-86
2022/04/09 08:43:03;;;;;;;6.15;1.00;;;8.00;99.90;;;;;;4966242;28;20070;-88
2022/04/09 08:45:35;;;;;;;8.60;1.10;;;7.90;99.90;;;;;;4973381;28;20053;-88
2022/04/09 08:48:02;;;;;;;12.30;1.65;;;7.90;99.90;;;;;;4942767;28;20046;-87
2022/04/09 08:50:31;;;;;;;5.90;1.80;;;7.80;99.90;;;;;;4950667;28;20039;-85
2022/04/09 08:53:05;;;;;;;9.93;1.50;;;7.80;99.90;;;;;;4944308;28;20047;-85
2022/04/09 08:55:31;;;;;;;7.68;1.60;;;7.90;99.90;;;;;;4932211;28;20129;-86
2022/04/09 08:57:56;;;;;;;10.93;1.70;;;8.10;99.90;;;;;;4977788;28;20038;-88
2022/04/09 09:00:22;;;;;;;17.17;2.03;;;8.10;99.90;;;;;;4950977;28;20051;-89
2022/04/09 09:02:56;;;;;;;8.03;1.00;;;8.10;99.90;;;;;;4974552;28;20049;-87
2022/04/09 09:05:32;;;;;;;7.82;0.93;;;8.00;99.90;;;;;;4953278;28;20046;-87
2022/04/09 09:07:58;;;;;;;10.73;1.25;;;7.90;99.90;;;;;;4960750;28;20069;-86
2022/04/09 09:10:24;;;;;;;7.15;1.13;;;7.90;99.90;;;;;;4959026;28;20047;-86
2022/04/09 09:13:00;;;;;;;5.73;2.07;;;8.00;99.90;;;;;;4959892;28;20583;-87
2022/04/09 09:15:28;;;;;;;9.80;1.27;;;8.20;99.90;;;;;;4946407;28;20043;-84
2022/04/09 09:17:58;;;;;;;10.88;1.30;;;8.40;99.90;;;;;;4942046;28;20133;-88
2022/04/09 09:20:24;;;;;;;7.03;1.23;;;8.60;99.90;;;;;;4946169;28;20158;-88
2022/04/09 09:22:50;;;;;;;8.15;0.95;;;8.60;99.90;;;;;;4957984;28;20047;-86
2022/04/09 09:25:17;;;;;;;5.22;1.27;;;8.70;98.60;;;;;;4946070;28;20504;-87
2022/04/09 09:27:42;;;;;;;6.78;1.13;;;8.80;98.90;;;;;;4947514;28;20051;-85
2022/04/09 09:30:10;;;;;;;10.30;1.40;;;8.70;97.20;;;;;;4946773;28;20038;-88
2022/04/09 09:32:38;;;;;;;8.73;1.27;;;8.70;97.00;;;;;;4947559;28;20154;-88
2022/04/09 09:35:05;;;;;;;7.07;0.85;;;8.80;95.80;;;;;;4944127;28;20693;-87
2022/04/09 09:37:31;;;;;;;;;;;8.90;93.90;;;;;;4976676;28;20484;-89
2022/04/09 09:39:57;;;;;;;5.45;0.73;;;9.10;83.80;;;;;;4955958;28;19922;-86
2022/04/09 09:42:25;;;;;;;4.75;1.13;;;9.20;93.30;;;;;;4946788;28;20198;-89
2022/04/09 09:44:51;;;;;;;2.95;0.70;;;9.00;93.00;;;;;;4957607;28;20795;-88
2022/04/09 09:47:17;;;;;;;6.63;1.00;;;8.70;96.20;;;;;;4942474;28;20047;-87
2022/04/09 09:49:47;;;;;;;3.90;1.05;;;8.50;98.70;;;;;;4959052;28;20043;-88
2022/04/09 09:52:13;;;;;;;4.97;0.80;;;8.30;99.90;;;;;;4946410;28;20087;-86
2022/04/09 09:55:13;;;;;;;4.15;0.60;;;8.20;99.90;;;;;;4942804;28;20101;-86
2022/04/09 09:57:38;;;;;;;2.10;0.43;;;8.20;99.90;;;;;;4960966;28;20432;-86
2022/04/09 10:00:12;;;;;;;0.57;0.23;;;8.10;99.90;;;;;;4959149;28;20176;-85
2022/04/09 10:02:45;;;;;;;4.15;1.15;;;8.20;99.90;;;;;;4961681;28;20069;-87
2022/04/09 10:05:12;;;;;;;5.95;0.73;;;8.20;99.90;;;;;;4945449;28;20045;-88
2022/04/09 10:07:39;;;;;;;1.80;0.47;;;8.10;99.90;;;;;;4965761;28;20047;-89
2022/04/09 10:10:06;;;;;;;7.65;1.60;;;7.90;99.90;;;;;;4970637;28;20062;-86
2022/04/09 10:12:41;;;;;;;10.25;1.63;;;7.80;99.90;;;;;;4946137;28;20034;-87
2022/04/09 10:18:49;;;;;;;3.78;0.50;;;7.40;99.90;;;;;;4957237;28;20074;-86
2022/04/09 10:21:18;;;;;;;3.15;0.70;;;7.30;99.90;;;;;;4952702;28;20279;-85
2022/04/09 10:23:45;;;;;;;6.93;1.08;;;7.30;99.90;;;;;;4957542;28;20384;-87
2022/04/09 10:26:12;;;;;;;2.22;0.60;;;7.30;99.90;;;;;;4942990;28;20081;-87
2022/04/09 10:28:39;;;;;;;4.63;1.05;;;7.60;99.90;;;;;;4949166;28;20047;-86
2022/04/09 10:31:23;;;;;;;1.30;0.45;;;7.80;99.90;;;;;;4955942;28;20064;-87
2022/04/09 10:34:15;;;;;;;2.85;0.60;;;8.10;99.90;;;;;;4961096;28;20050;-86
2022/04/09 10:36:40;;;;;;;4.22;0.88;;;8.40;99.90;;;;;;4941468;28;20426;-86
2022/04/09 10:39:26;;;;;;;7.10;0.70;;;8.40;99.90;;;;;;4968214;28;20079;-86
2022/04/09 10:41:53;;;;;;;5.75;0.65;;;8.60;99.90;;;;;;4952429;28;20050;-86
2022/04/09 10:44:44;;;;;;;3.67;0.70;;;8.80;99.90;;;;;;4974410;28;20106;-88
2022/04/09 10:47:20;;;;;;;3.97;1.00;;;9.20;96.90;;;;;;4952374;28;20086;-86
2022/04/09 10:50:01;;;;;;;3.55;0.80;;;9.30;95.30;;;;;;4952722;28;20039;-86
2022/04/09 10:52:29;;;;;;;5.68;1.00;;;9.30;94.50;;;;;;4963028;28;20050;-87
2022/04/09 10:55:09;;;;;;;7.60;0.60;;;9.30;98.20;;;;;;4956230;28;20062;-86
2022/04/09 10:57:42;;;;;;;5.88;1.00;;;9.30;90.20;;;;;;4954732;28;20129;-84
2022/04/09 11:00:20;;;;;;;5.18;0.80;;;9.20;85.20;;;;;;4951250;28;20057;-85
2022/04/09 11:03:14;;;;;;;2.03;0.60;;;9.00;89.80;;;;;;4967163;28;20046;-86
2022/04/09 11:05:41;;;;;;;3.85;0.50;;;9.10;84.30;;;;;;4962054;28;20042;-85
2022/04/09 11:08:27;;;;;;;5.95;0.68;;;9.20;88.80;;;;;;4939630;28;20042;-88
2022/04/09 11:10:54;;;;;;;3.80;0.90;;;9.20;83.10;;;;;;4959665;28;20050;-87
2022/04/09 11:13:29;;;;;;;3.60;1.23;;;9.30;89.00;;;;;;4957120;28;20560;-87
2022/04/09 11:15:55;;;;;;;2.28;0.90;;;9.30;90.00;;;;;;4971130;28;20182;-86
2022/04/09 11:18:21;;;;;;;3.80;0.60;;;9.40;84.50;;;;;;4974165;28;20050;-88
2022/04/09 11:20:47;;;;;;;4.17;0.60;;;9.30;81.30;;;;;;4953913;28;20047;-88
2022/04/09 11:23:15;;;;;;;4.57;0.70;;;9.20;82.70;;;;;;4955740;28;20130;-87
2022/04/09 11:25:47;;;;;;;5.50;0.90;;;9.20;85.10;;;;;;4954545;28;20053;-89
2022/04/09 11:28:23;;;;;;;6.47;1.45;;;9.00;83.80;;;;;;4958303;28;20046;-86
2022/04/09 11:31:08;;;;;;;5.90;0.70;;;9.00;85.10;;;;;;4974040;28;20501;-86
2022/04/09 11:33:38;;;;;;;;;;;9.20;86.50;;;;;;4975372;28;20458;-87
2022/04/09 11:36:24;;;;;;;6.55;1.23;;;9.50;84.90;;;;;;4956542;28;19917;-89
2022/04/09 11:39:06;;;;;;;3.88;0.95;;;9.60;81.90;;;;;;4957694;28;20047;-87
2022/04/09 11:41:34;;;;;;;2.80;0.82;;;9.50;85.40;;;;;;4962556;28;20148;-89
2022/04/09 11:44:27;;;;;;;4.60;0.80;;;9.30;85.10;;;;;;4972708;28;20035;-89
2022/04/09 11:47:08;;;;;;;6.55;0.45;;;9.10;79.60;;;;;;4951759;28;21041;-88
2022/04/09 11:49:37;;;;;;;2.70;0.40;;;9.00;82.00;;;;;;4954221;28;20585;-92
2022/04/09 11:52:04;;;;;;;1.25;0.38;;;9.20;83.20;;;;;;4959458;28;20047;-88
2022/04/09 11:54:34;;;;;;;0.10;0.10;;;9.10;81.40;;;;;;4955928;28;20408;-92
2022/04/09 11:57:01;;;;;;;1.88;0.30;;;9.00;80.00;;;;;;4970768;28;20191;-87
2022/04/09 11:59:38;;;;;;;1.90;0.40;;;8.80;83.40;;;;;;4955890;28;20058;-89
2022/04/09 12:02:36;;;;;;;;;;;8.70;84.70;;;;;;4959789;28;20237;-90
2022/04/09 12:05:03;;;;;;;2.25;0.30;;;8.60;85.10;;;;;;4934150;28;19922;-87
2022/04/09 12:07:30;;;;;;;3.45;0.40;;;8.40;90.40;;;;;;4958622;28;20047;-87
2022/04/09 12:09:56;;;;;;;1.55;0.30;;;8.30;92.10;;;;;;4960460;28;20043;-86
2022/04/09 12:12:23;;;;;;;3.92;0.70;;;8.40;93.90;;;;;;4955300;28;20090;-86
2022/04/09 12:14:57;;;;;;;0.80;0.20;;;8.20;96.20;;;;;;4955840;28;20265;-86
2022/04/09 12:17:34;;;;;;;3.00;0.57;;;8.40;92.90;;;;;;4955640;28;20043;-89
2022/04/09 12:20:35;;;;;;;4.40;0.68;;;8.40;93.60;;;;;;4954406;28;20054;-93
2022/04/09 12:23:03;;;;;;;7.35;0.80;;;8.60;91.90;;;;;;4960572;28;20583;-88
2022/04/09 12:25:44;;;;;;;2.08;0.55;;;8.90;91.60;;;;;;4962857;28;20046;-89
2022/04/09 12:28:32;;;;;;;4.03;1.02;;;9.20;90.20;;;;;;4957363;28;20051;-89
2022/04/09 12:31:07;;;;;;;2.13;0.40;;;9.50;86.60;;;;;;4977245;28;20540;-93
2022/04/09 12:33:33;;;;;;;1.30;0.43;;;9.80;80.20;;;;;;4967058;28;20051;-87
2022/04/09 12:36:07;;;;;;;3.53;0.70;;;9.90;79.80;;;;;;4961008;28;21345;-88
2022/04/09 12:38:42;;;;;;;4.78;0.88;;;9.90;76.10;;;;;;4941493;28;20035;-89
2022/04/09 12:41:08;;;;;;;7.55;0.77;;;10.00;75.00;;;;;;4959760;28;20485;-88
2022/04/09 12:43:35;;;;;;;4.60;1.07;;;10.30;76.90;;;;;;4960593;28;20122;-88
2022/04/09 12:46:09;;;;;;;5.18;0.88;;;10.40;74.70;;;;;;4965029;28;20093;-88
2022/04/09 12:48:40;;;;;;;8.93;1.25;;;10.60;73.70;;;;;;4947287;28;20063;-88
2022/04/09 12:51:06;;;;;;;4.90;1.13;;;10.70;74.00;;;;;;4973523;28;20051;-87
2022/04/09 12:53:34;;;;;;;3.05;0.68;;;10.70;74.40;;;;;;4965154;28;20050;-88
2022/04/09 12:56:09;;;;;;;2.97;0.57;;;10.30;75.50;;;;;;4961056;28;20070;-88
2022/04/09 13:05:23;;;;;;;1.52;0.43;;;8.90;85.70;;;;;;5227765;23;20056;-70
2022/04/09 13:08:00;;;;;;;1.00;0.32;;;8.90;90.80;;;;;;5027009;28;20036;-68
2022/04/09 13:11:31;;;;;;;1.30;0.33;;;9.00;86.10;;;;;;4944047;28;20608;-69
2022/04/09 13:14:00;;;;;;;3.78;0.70;;;9.30;83.30;;;;;;4950602;28;20042;-69